Time;durP1;ratioP1;P1;durP2;ratioP2;P2;SDS_P1;SDS_P2;PMS_P1;PMS_P2;Temp;Humidity;BMP_temperature;BMP_pressure;BME280_temperature;BME280_humidity;BME280_pressure;Samples;Min_cycle;Max_cycle;Signal;HPM_P1;HPM_P2
2022/11/09 00:00:51;;;;;;;;;;;13.90;99.90;;;;;;8422019;28;20006;-77
2022/11/09 00:20:04;;;;;;;;;;;13.70;99.90;;;;;;8422728;28;19919;-77
2022/11/09 00:24:06;;;;;;;;;;;13.60;99.90;;;;;;8423805;28;19930;-77
2022/11/09 00:28:07;;;;;;;;;;;13.60;99.90;;;;;;8418253;28;19928;-78
2022/11/09 00:32:09;;;;;;;;;;;13.50;99.90;;;;;;8430366;28;19928;-78
2022/11/09 00:36:11;;;;;;;;;;;13.50;99.90;;;;;;8419866;28;19924;-78
2022/11/09 00:40:13;;;;;;;;;;;13.50;99.90;;;;;;8416409;28;20014;-78
2022/11/09 00:44:14;;;;;;;;;;;13.50;99.90;;;;;;8434757;28;19924;-78
2022/11/09 00:48:16;;;;;;;;;;;13.50;99.90;;;;;;8421878;28;20317;-78
2022/11/09 00:52:18;;;;;;;;;;;13.50;99.90;;;;;;8417586;28;20396;-78
2022/11/09 00:56:20;;;;;;;;;;;13.50;99.90;;;;;;8414857;28;20418;-79
2022/11/09 01:00:22;;;;;;;;;;;13.50;99.90;;;;;;8417739;28;20383;-80
2022/11/09 01:04:24;;;;;;;;;;;13.60;99.90;;;;;;8419621;28;19978;-79
2022/11/09 01:08:25;;;;;;;;;;;13.60;99.90;;;;;;8417797;28;19931;-79
2022/11/09 01:12:27;;;;;;;;;;;13.60;99.90;;;;;;8420374;28;20413;-80
2022/11/09 01:16:29;;;;;;;;;;;13.60;99.90;;;;;;8426013;28;19927;-78
2022/11/09 01:20:30;;;;;;;;;;;13.60;99.90;;;;;;8408502;28;19928;-79
2022/11/09 01:24:32;;;;;;;;;;;13.60;99.90;;;;;;8426601;28;19930;-79
2022/11/09 01:33:47;;;;;;;;;;;13.60;99.90;;;;;;8422388;28;19918;-79
2022/11/09 01:37:48;;;;;;;;;;;13.60;99.90;;;;;;8401207;28;19928;-78
2022/11/09 01:41:50;;;;;;;;;;;13.60;99.90;;;;;;8429361;28;19928;-76
2022/11/09 01:45:57;;;;;;;;;;;13.50;99.90;;;;;;8424436;28;20016;-78
2022/11/09 01:49:59;;;;;;;;;;;13.40;99.90;;;;;;8422376;28;19930;-78
2022/11/09 01:54:03;;;;;;;;;;;13.40;99.90;;;;;;8416513;28;19950;-77
2022/11/09 01:58:07;;;;;;;;;;;13.40;99.90;;;;;;8407310;28;20298;-78
2022/11/09 02:02:09;;;;;;;;;;;13.30;99.90;;;;;;8437783;28;19967;-78
2022/11/09 02:06:13;;;;;;;;;;;13.30;99.90;;;;;;8435016;28;19931;-78
2022/11/09 02:10:32;;;;;;;;;;;13.30;99.90;;;;;;8436524;28;20418;-77
2022/11/09 02:14:34;;;;;;;;;;;13.30;99.90;;;;;;8424141;28;19928;-77
2022/11/09 02:18:38;;;;;;;;;;;13.30;99.90;;;;;;8426385;28;19927;-77
2022/11/09 02:22:40;;;;;;;;;;;13.30;99.90;;;;;;8433831;28;19932;-78
2022/11/09 02:26:49;;;;;;;;;;;13.30;99.90;;;;;;8433240;28;20494;-78
2022/11/09 02:30:52;;;;;;;;;;;13.30;99.90;;;;;;8419449;28;19956;-78
2022/11/09 02:34:54;;;;;;;;;;;13.30;99.90;;;;;;8432756;28;20313;-79
2022/11/09 02:38:56;;;;;;;;;;;13.30;99.90;;;;;;8432453;28;19930;-77
2022/11/09 02:42:59;;;;;;;;;;;13.30;99.90;;;;;;8430060;28;19931;-78
2022/11/09 02:47:00;;;;;;;;;;;13.30;99.90;;;;;;8425721;28;19928;-79
2022/11/09 02:51:02;;;;;;;;;;;13.30;99.90;;;;;;8414283;28;19967;-77
2022/11/09 02:55:04;;;;;;;;;;;13.30;99.90;;;;;;8418736;28;19924;-77
2022/11/09 02:59:06;;;;;;;;;;;13.40;99.90;;;;;;8419097;28;19967;-79
2022/11/09 03:03:08;;;;;;;;;;;13.40;99.90;;;;;;8430433;28;20298;-78
2022/11/09 03:07:09;;;;;;;;;;;13.40;99.90;;;;;;8416344;28;19946;-78
2022/11/09 03:11:11;;;;;;;;;;;13.40;99.90;;;;;;8422727;28;19953;-78
2022/11/09 03:15:13;;;;;;;;;;;13.40;99.90;;;;;;8424079;28;19951;-78
2022/11/09 03:19:15;;;;;;;;;;;13.40;99.90;;;;;;8430086;28;20350;-78
2022/11/09 03:23:16;;;;;;;;;;;13.40;99.90;;;;;;8431526;28;19924;-78
2022/11/09 03:27:18;;;;;;;;;;;13.30;99.90;;;;;;8420016;28;19968;-79
2022/11/09 03:31:20;;;;;;;;;;;13.30;99.90;;;;;;8425675;28;19924;-78
2022/11/09 03:35:21;;;;;;;;;;;13.20;99.90;;;;;;8412020;28;20055;-78
2022/11/09 03:39:23;;;;;;;;;;;13.20;99.90;;;;;;8425375;28;19923;-79
2022/11/09 03:43:25;;;;;;;;;;;13.10;99.90;;;;;;8417635;28;20343;-77
2022/11/09 03:47:26;;;;;;;;;;;13.10;99.90;;;;;;8415170;28;19930;-78
2022/11/09 03:51:28;;;;;;;;;;;13.10;99.90;;;;;;8431898;28;20318;-79
2022/11/09 03:55:30;;;;;;;;;;;13.00;99.90;;;;;;8412907;28;20346;-78
2022/11/09 03:59:31;;;;;;;;;;;13.00;99.90;;;;;;8437003;28;19932;-79
2022/11/09 04:03:33;;;;;;;;;;;13.00;99.90;;;;;;8423869;28;19931;-79
2022/11/09 04:07:35;;;;;;;;;;;12.90;99.90;;;;;;8415699;28;20627;-78
2022/11/09 04:11:36;;;;;;;;;;;12.90;99.90;;;;;;8410740;28;19934;-77
2022/11/09 04:15:38;;;;;;;;;;;12.90;99.90;;;;;;8425024;28;20341;-78
2022/11/09 04:19:39;;;;;;;;;;;12.80;99.90;;;;;;8423274;28;19928;-79
2022/11/09 04:23:41;;;;;;;;;;;12.80;99.90;;;;;;8426219;28;20399;-78
2022/11/09 04:27:43;;;;;;;;;;;12.80;99.90;;;;;;8419558;28;19938;-79
2022/11/09 04:31:46;;;;;;;;;;;12.80;99.90;;;;;;8425005;28;19924;-78
2022/11/09 04:35:48;;;;;;;;;;;12.70;99.90;;;;;;8421212;28;20013;-78
2022/11/09 04:39:50;;;;;;;;;;;12.70;99.90;;;;;;8418336;28;19931;-77
2022/11/09 04:43:51;;;;;;;;;;;12.60;99.90;;;;;;8428219;28;20295;-79
2022/11/09 04:47:57;;;;;;;;;;;12.70;99.90;;;;;;8421140;28;20307;-78
2022/11/09 04:51:59;;;;;;;;;;;12.60;99.90;;;;;;8421367;28;19927;-78
2022/11/09 04:56:01;;;;;;;;;;;12.70;99.90;;;;;;8419053;28;19934;-79
2022/11/09 05:00:04;;;;;;;;;;;12.70;99.90;;;;;;8419119;28;20289;-78
2022/11/09 05:04:06;;;;;;;;;;;12.70;99.90;;;;;;8415718;28;19982;-80
2022/11/09 05:08:08;;;;;;;;;;;12.70;99.90;;;;;;8421340;28;20333;-78
2022/11/09 05:12:10;;;;;;;;;;;12.70;99.90;;;;;;8426828;28;20447;-79
2022/11/09 05:16:11;;;;;;;;;;;12.70;99.90;;;;;;8413124;28;20028;-78
2022/11/09 05:20:13;;;;;;;;;;;12.60;99.90;;;;;;8426472;28;19927;-79
2022/11/09 05:24:15;;;;;;;;;;;12.60;99.90;;;;;;8412429;28;19939;-77
2022/11/09 05:28:16;;;;;;;;;;;12.50;99.90;;;;;;8416992;28;19924;-78
2022/11/09 05:32:18;;;;;;;;;;;12.50;99.90;;;;;;8424211;28;19927;-78
2022/11/09 05:36:20;;;;;;;;;;;12.50;99.90;;;;;;8426769;28;19932;-78
2022/11/09 05:40:22;;;;;;;;;;;12.50;99.90;;;;;;8419718;28;19939;-79
2022/11/09 05:44:24;;;;;;;;;;;12.40;99.90;;;;;;8436798;28;19924;-78
2022/11/09 05:48:26;;;;;;;;;;;12.40;99.90;;;;;;8416986;28;20287;-79
2022/11/09 05:52:27;;;;;;;;;;;12.40;99.90;;;;;;8427442;28;19924;-78
2022/11/09 05:56:29;;;;;;;;;;;12.40;99.90;;;;;;8423190;28;20351;-79
2022/11/09 06:00:31;;;;;;;;;;;12.40;99.90;;;;;;8428052;28;19928;-78
2022/11/09 06:04:33;;;;;;;;;;;12.40;99.90;;;;;;8445196;27;19932;-78
2022/11/09 06:08:34;;;;;;;;;;;12.40;99.90;;;;;;8411892;28;20038;-77
2022/11/09 06:12:36;;;;;;;;;;;12.40;99.90;;;;;;8442538;27;20088;-78
2022/11/09 06:16:38;;;;;;;;;;;12.30;99.90;;;;;;8424094;28;19931;-78
2022/11/09 06:20:40;;;;;;;;;;;12.30;99.90;;;;;;8429608;28;20274;-78
2022/11/09 06:34:43;;;;;;;;;;;12.30;99.90;;;;;;8425294;28;20444;-78
2022/11/09 06:38:47;;;;;;;;;;;12.20;99.90;;;;;;8430128;28;19960;-78
2022/11/09 06:42:49;;;;;;;;;;;12.20;99.90;;;;;;8425289;28;20033;-78
2022/11/09 06:46:50;;;;;;;;;;;12.20;99.90;;;;;;8415453;28;19939;-78
2022/11/09 06:50:52;;;;;;;;;;;12.20;99.90;;;;;;8428929;28;20014;-79
2022/11/09 06:54:54;;;;;;;;;;;12.20;99.90;;;;;;8420726;28;20355;-78
2022/11/09 06:58:55;;;;;;;;;;;12.20;99.90;;;;;;8406014;28;19924;-78
2022/11/09 07:02:57;;;;;;;;;;;12.20;99.90;;;;;;8411264;28;20348;-78
2022/11/09 07:06:59;;;;;;;;;;;12.20;99.90;;;;;;8420493;28;19924;-78
2022/11/09 07:11:02;;;;;;;;;;;12.20;99.90;;;;;;8419987;28;19934;-79
2022/11/09 07:15:04;;;;;;;;;;;12.20;99.90;;;;;;8425443;28;19924;-78
2022/11/09 07:19:06;;;;;;;;;;;12.20;99.90;;;;;;8406883;28;20368;-78
2022/11/09 07:23:07;;;;;;;;;;;12.20;99.90;;;;;;8426215;28;19932;-77
2022/11/09 07:27:09;;;;;;;;;;;12.30;99.90;;;;;;8445666;27;19928;-78
2022/11/09 07:31:11;;;;;;;;;;;12.30;99.90;;;;;;8428455;28;20014;-78
2022/11/09 07:35:12;;;;;;;;;;;12.30;99.90;;;;;;8427428;28;19935;-77
2022/11/09 07:39:14;;;;;;;;;;;12.30;99.90;;;;;;8423312;28;19924;-78
2022/11/09 07:43:17;;;;;;;;;;;12.30;99.90;;;;;;8419473;28;20007;-79
2022/11/09 07:47:19;;;;;;;;;;;12.40;99.90;;;;;;8415378;28;20398;-78
2022/11/09 07:51:20;;;;;;;;;;;12.40;99.90;;;;;;8407370;28;20027;-78
2022/11/09 07:55:23;;;;;;;;;;;12.50;99.90;;;;;;8411244;28;19924;-78
2022/11/09 07:59:24;;;;;;;;;;;12.50;99.90;;;;;;8421867;28;19950;-79
2022/11/09 08:03:26;;;;;;;;;;;12.50;99.90;;;;;;8425034;28;20011;-78
2022/11/09 08:07:28;;;;;;;;;;;12.50;99.90;;;;;;8413431;28;20019;-78
2022/11/09 08:11:29;;;;;;;;;;;12.60;99.90;;;;;;8422674;28;20583;-79
2022/11/09 08:15:32;;;;;;;;;;;12.60;99.90;;;;;;8425664;28;20398;-79
2022/11/09 08:19:34;;;;;;;;;;;12.70;99.90;;;;;;8418257;28;19931;-77
2022/11/09 08:23:35;;;;;;;;;;;12.70;99.90;;;;;;8409815;28;20481;-78
2022/11/09 08:27:39;;;;;;;;;;;12.80;99.90;;;;;;8422396;28;19985;-79
2022/11/09 08:31:40;;;;;;;;;;;12.90;99.90;;;;;;8446765;27;19930;-78
2022/11/09 08:35:42;;;;;;;;;;;12.90;99.90;;;;;;8426295;28;20354;-79
2022/11/09 08:39:43;;;;;;;;;;;13.00;99.90;;;;;;8423827;28;19968;-78
2022/11/09 08:43:45;;;;;;;;;;;13.10;99.90;;;;;;8423344;28;20427;-78
2022/11/09 08:47:47;;;;;;;;;;;13.10;99.90;;;;;;8438127;28;21824;-78
2022/11/09 08:51:48;;;;;;;;;;;13.20;99.90;;;;;;8422970;28;19931;-78
2022/11/09 08:55:50;;;;;;;;;;;13.30;99.90;;;;;;8416048;28;19930;-78
2022/11/09 08:59:52;;;;;;;;;;;13.40;99.90;;;;;;8428426;28;20377;-78
2022/11/09 09:03:54;;;;;;;;;;;13.50;99.90;;;;;;8398753;28;22004;-78
2022/11/09 09:07:57;;;;;;;;;;;13.70;99.90;;;;;;8424766;28;19978;-79
2022/11/09 09:11:59;;;;;;;;;;;13.80;99.90;;;;;;8406736;28;19924;-79
2022/11/09 09:16:11;;;;;;;;;;;13.90;99.90;;;;;;8430590;28;19950;-79
2022/11/09 09:20:13;;;;;;;;;;;14.00;99.90;;;;;;8419453;28;20287;-79
2022/11/09 09:24:15;;;;;;;;;;;14.10;99.90;;;;;;8424944;28;20282;-79
2022/11/09 09:28:16;;;;;;;;;;;14.10;99.90;;;;;;8397650;28;20022;-78
2022/11/09 09:32:18;;;;;;;;;;;14.00;99.90;;;;;;8415374;28;20001;-78
2022/11/09 09:36:21;;;;;;;;;;;14.10;99.90;;;;;;8419098;28;20008;-78
2022/11/09 09:40:30;;;;;;;;;;;14.20;99.90;;;;;;8400869;28;19934;-78
2022/11/09 09:44:50;;;;;;;;;;;14.10;99.90;;;;;;8421870;28;19932;-78
2022/11/09 09:48:54;;;;;;;;;;;13.90;99.90;;;;;;8421094;28;20461;-79
2022/11/09 09:52:59;;;;;;;;;;;13.90;99.90;;;;;;8420280;28;19924;-79
2022/11/09 09:57:22;;;;;;;;;;;13.90;99.90;;;;;;8420013;28;20322;-79
2022/11/09 10:01:26;;;;;;;;;;;14.00;99.90;;;;;;8430811;28;19928;-79
2022/11/09 10:05:38;;;;;;;;;;;14.10;99.90;;;;;;8426787;28;19923;-79
2022/11/09 10:09:46;;;;;;;;;;;14.20;99.90;;;;;;8430384;28;19934;-78
2022/11/09 10:13:54;;;;;;;;;;;14.30;99.90;;;;;;8412804;28;19928;-79
2022/11/09 10:18:04;;;;;;;;;;;14.60;99.90;;;;;;8417276;28;19928;-78
2022/11/09 10:22:21;;;;;;;;;;;14.60;99.90;;;;;;8431594;28;19934;-79
2022/11/09 10:26:26;;;;;;;;;;;14.60;99.90;;;;;;8437663;28;19934;-78
2022/11/09 10:30:28;;;;;;;;;;;14.40;99.90;;;;;;8417482;28;20031;-78
2022/11/09 10:34:38;;;;;;;;;;;14.30;99.90;;;;;;8407780;28;19928;-78
2022/11/09 10:38:42;;;;;;;;;;;14.60;99.90;;;;;;8433615;28;19923;-78
2022/11/09 10:42:49;;;;;;;;;;;15.00;99.90;;;;;;8416209;28;19932;-78
2022/11/09 10:47:00;;;;;;;;;;;15.30;99.90;;;;;;8432599;28;20327;-78
2022/11/09 10:51:02;;;;;;;;;;;15.30;99.90;;;;;;8420352;28;20011;-79
2022/11/09 10:55:16;;;;;;;;;;;15.10;99.90;;;;;;8407513;28;20197;-77
2022/11/09 10:59:36;;;;;;;;;;;15.00;99.90;;;;;;8396437;28;19931;-78
2022/11/09 11:03:38;;;;;;;;;;;14.70;99.90;;;;;;8399393;28;19924;-78
2022/11/09 11:07:40;;;;;;;;;;;14.90;99.90;;;;;;8398696;28;19932;-78
2022/11/09 11:11:42;;;;;;;;;;;14.80;99.90;;;;;;8393558;28;19927;-78
2022/11/09 11:15:44;;;;;;;;;;;15.00;99.90;;;;;;8398878;28;20335;-78
2022/11/09 11:19:45;;;;;;;;;;;14.90;99.90;;;;;;8400958;28;19963;-79
2022/11/09 11:24:16;;;;;;;;;;;14.80;99.90;;;;;;8400532;28;20023;-79
2022/11/09 11:28:21;;;;;;;;;;;14.60;99.90;;;;;;8395124;28;19924;-78
2022/11/09 11:32:23;;;;;;;;;;;14.60;99.90;;;;;;8412664;27;19931;-78
2022/11/09 11:36:28;;;;;;;;;;;14.70;99.90;;;;;;8394312;28;20398;-78
2022/11/09 11:40:40;;;;;;;;;;;14.60;99.90;;;;;;8395256;28;19928;-78
2022/11/09 11:44:56;;;;;;;;;;;14.50;99.90;;;;;;8400667;28;19932;-78
2022/11/09 11:49:41;;;;;;;;;;;14.40;99.90;;;;;;8393022;28;20379;-78
2022/11/09 11:53:43;;;;;;;;;;;14.20;99.90;;;;;;8395365;28;19935;-79
2022/11/09 11:57:50;;;;;;;;;;;13.80;99.90;;;;;;8393561;28;20693;-79
2022/11/09 12:01:57;;;;;;;;;;;13.40;99.90;;;;;;8402681;28;19924;-79
2022/11/09 12:06:18;;;;;;;;;;;13.20;99.90;;;;;;8403919;28;19931;-79
2022/11/09 12:10:27;;;;;;;;;;;13.00;99.90;;;;;;8401516;28;20372;-79
2022/11/09 12:14:35;;;;;;;;;;;13.00;99.90;;;;;;8392639;28;20027;-79
2022/11/09 12:18:55;;;;;;;;;;;13.10;99.90;;;;;;8413123;27;20448;-79
2022/11/09 12:23:19;;;;;;;;;;;13.40;99.90;;;;;;8401008;28;19939;-78
2022/11/09 12:27:24;;;;;;;;;;;13.90;99.90;;;;;;8393214;28;19977;-79
2022/11/09 12:31:32;;;;;;;;;;;14.10;99.90;;;;;;8395362;28;20048;-79
2022/11/09 12:35:41;;;;;;;;;;;14.10;99.90;;;;;;8400747;28;19957;-79
2022/11/09 12:39:51;;;;;;;;;;;14.00;99.90;;;;;;8402154;28;19924;-78
2022/11/09 12:43:55;;;;;;;;;;;14.20;99.90;;;;;;8398135;28;19923;-79
2022/11/09 12:47:59;;;;;;;;;;;14.60;99.90;;;;;;8399196;28;19938;-79
2022/11/09 12:52:01;;;;;;;;;;;14.50;99.90;;;;;;8396340;28;20432;-79
2022/11/09 12:56:14;;;;;;;;;;;14.50;99.90;;;;;;8398087;28;20402;-79
2022/11/09 13:00:34;;;;;;;;;;;14.70;99.90;;;;;;8398894;28;19924;-78
2022/11/09 13:04:36;;;;;;;;;;;14.70;99.90;;;;;;8394712;28;19943;-79
2022/11/09 13:08:39;;;;;;;;;;;14.80;99.90;;;;;;8391345;28;19994;-79
2022/11/09 13:12:41;;;;;;;;;;;14.70;99.90;;;;;;8399537;28;19931;-78
2022/11/09 13:16:43;;;;;;;;;;;14.70;99.90;;;;;;8398714;28;20024;-79
2022/11/09 13:20:45;;;;;;;;;;;14.70;99.90;;;;;;8404612;28;19931;-78
2022/11/09 13:25:00;;;;;;;;;;;14.70;99.90;;;;;;8396535;28;19924;-79
2022/11/09 13:29:19;;;;;;;;;;;14.60;99.90;;;;;;8402399;28;19924;-78
2022/11/09 13:33:22;;;;;;;;;;;14.50;99.90;;;;;;8399399;28;20345;-79
2022/11/09 13:37:39;;;;;;;;;;;14.40;99.90;;;;;;8399894;28;19930;-79
2022/11/09 13:41:42;;;;;;;;;;;14.40;99.90;;;;;;8395847;28;19931;-78
2022/11/09 13:45:49;;;;;;;;;;;14.40;99.90;;;;;;8394975;28;20027;-79
2022/11/09 13:49:51;;;;;;;;;;;14.40;99.90;;;;;;8409066;28;19928;-78
2022/11/09 13:53:52;;;;;;;;;;;14.60;99.90;;;;;;8375172;28;19925;-79
2022/11/09 13:57:56;;;;;;;;;;;14.60;99.90;;;;;;8403863;28;19930;-78
2022/11/09 14:01:58;;;;;;;;;;;14.50;99.90;;;;;;8403313;28;19930;-79
2022/11/09 14:06:01;;;;;;;;;;;14.60;99.90;;;;;;8396334;28;19971;-78
2022/11/09 14:10:11;;;;;;;;;;;14.50;99.90;;;;;;8403320;28;19924;-79
2022/11/09 14:14:27;;;;;;;;;;;14.50;99.90;;;;;;8382075;28;20027;-79
2022/11/09 14:18:39;;;;;;;;;;;14.40;99.90;;;;;;8407489;28;19975;-79
2022/11/09 14:22:40;;;;;;;;;;;14.40;99.90;;;;;;8420585;28;19930;-79
2022/11/09 14:26:59;;;;;;;;;;;14.30;99.90;;;;;;8403786;28;20476;-78
2022/11/09 14:31:01;;;;;;;;;;;14.30;99.90;;;;;;8398521;28;19924;-78
2022/11/09 14:35:21;;;;;;;;;;;14.20;99.90;;;;;;8404570;28;20470;-79
2022/11/09 14:39:28;;;;;;;;;;;14.20;99.90;;;;;;8410276;28;19935;-79
2022/11/09 14:43:42;;;;;;;;;;;14.20;99.90;;;;;;8403727;28;19951;-80
2022/11/09 14:47:45;;;;;;;;;;;14.10;99.90;;;;;;8403126;28;19924;-79
2022/11/09 14:51:47;;;;;;;;;;;14.10;99.90;;;;;;8412413;27;19925;-79
2022/11/09 14:55:50;;;;;;;;;;;14.00;99.90;;;;;;8398591;28;20294;-79
2022/11/09 14:59:52;;;;;;;;;;;14.00;99.90;;;;;;8400579;28;19924;-78
2022/11/09 15:04:09;;;;;;;;;;;14.00;99.90;;;;;;8419266;27;19925;-79
2022/11/09 15:08:14;;;;;;;;;;;14.00;99.90;;;;;;8391403;28;19928;-79
2022/11/09 15:12:17;;;;;;;;;;;14.00;99.90;;;;;;8400912;28;19928;-78
2022/11/09 15:16:25;;;;;;;;;;;14.00;99.90;;;;;;8404467;28;19954;-78
2022/11/09 15:20:28;;;;;;;;;;;13.90;99.90;;;;;;8394351;28;20034;-78
2022/11/09 15:24:43;;;;;;;;;;;13.90;99.90;;;;;;8397674;28;20631;-78
2022/11/09 15:28:46;;;;;;;;;;;13.90;99.90;;;;;;8404244;28;19924;-79
2022/11/09 15:32:48;;;;;;;;;;;13.90;99.90;;;;;;8395600;28;20081;-79
2022/11/09 15:36:54;;;;;;;;;;;13.90;99.90;;;;;;8397749;28;20390;-79
2022/11/09 15:40:55;;;;;;;;;;;13.80;99.90;;;;;;8402864;28;20006;-79
2022/11/09 15:44:58;;;;;;;;;;;13.80;99.90;;;;;;8400825;28;19935;-79
2022/11/09 15:49:18;;;;;;;;;;;13.80;99.90;;;;;;8398684;28;19940;-79
2022/11/09 15:53:20;;;;;;;;;;;13.60;99.90;;;;;;8393537;28;19958;-79
2022/11/09 15:57:22;;;;;;;;;;;13.60;99.90;;;;;;8398760;28;19999;-79
2022/11/09 16:01:24;;;;;;;;;;;13.60;99.90;;;;;;8390631;28;19924;-78
2022/11/09 16:05:27;;;;;;;;;;;13.40;99.90;;;;;;8398502;28;20005;-78
2022/11/09 16:14:32;;;;;;;;;;;13.40;99.90;;;;;;8394566;28;20291;-78
2022/11/09 16:18:34;;;;;;;;;;;13.30;99.90;;;;;;8393344;28;19935;-79
2022/11/09 16:22:35;;;;;;;;;;;13.20;99.90;;;;;;8397294;28;19936;-79
2022/11/09 16:26:37;;;;;;;;;;;13.20;99.90;;;;;;8381753;28;19930;-79
2022/11/09 16:30:38;;;;;;;;;;;13.10;99.90;;;;;;8382223;28;19929;-79
2022/11/09 16:34:46;;;;;;;;;;;13.10;99.90;;;;;;8396183;28;19975;-79
2022/11/09 16:39:03;;;;;;;;;;;13.00;99.90;;;;;;8395840;28;20714;-78
2022/11/09 16:43:04;;;;;;;;;;;13.00;99.90;;;;;;8397562;28;20406;-79
2022/11/09 16:47:07;;;;;;;;;;;12.90;99.90;;;;;;8387228;28;20426;-79
2022/11/09 16:51:09;;;;;;;;;;;13.00;99.90;;;;;;8393002;28;19942;-78
2022/11/09 16:55:11;;;;;;;;;;;13.00;99.90;;;;;;8393866;28;19974;-79
2022/11/09 16:59:13;;;;;;;;;;;13.00;99.90;;;;;;8408246;28;19933;-77
2022/11/09 17:03:15;;;;;;;;;;;13.00;99.90;;;;;;8394400;28;20051;-79
2022/11/09 17:07:16;;;;;;;;;;;13.00;99.90;;;;;;8393015;28;19928;-78
2022/11/09 17:11:19;;;;;;;;;;;12.90;99.90;;;;;;8391689;28;19932;-79
2022/11/09 17:15:21;;;;;;;;;;;12.90;99.90;;;;;;8393565;28;20307;-79
2022/11/09 17:19:22;;;;;;;;;;;12.90;99.90;;;;;;8394792;28;20019;-78
2022/11/09 17:23:24;;;;;;;;;;;12.90;99.90;;;;;;8375497;28;19931;-78
2022/11/09 17:27:26;;;;;;;;;;;12.90;99.90;;;;;;8373536;28;19925;-78
2022/11/09 17:31:27;;;;;;;;;;;12.80;99.90;;;;;;8401323;28;20466;-79
2022/11/09 17:35:35;;;;;;;;;;;12.80;99.90;;;;;;8396583;28;20341;-79
2022/11/09 17:39:36;;;;;;;;;;;12.80;99.90;;;;;;8397697;28;19936;-79
2022/11/09 17:43:39;;;;;;;;;;;12.80;99.90;;;;;;8405784;28;19936;-78
2022/11/09 17:47:41;;;;;;;;;;;12.80;99.90;;;;;;8399934;28;20034;-78
2022/11/09 17:51:42;;;;;;;;;;;12.80;99.90;;;;;;8407077;28;19932;-78
2022/11/09 17:55:47;;;;;;;;;;;12.80;99.90;;;;;;8404418;28;19924;-78
2022/11/09 17:59:48;;;;;;;;;;;12.80;99.90;;;;;;8400550;28;20266;-77
2022/11/09 18:03:50;;;;;;;;;;;12.70;99.90;;;;;;8404145;28;20406;-78
2022/11/09 18:07:52;;;;;;;;;;;12.70;99.90;;;;;;8384535;28;20335;-78
2022/11/09 18:11:53;;;;;;;;;;;12.60;99.90;;;;;;8402695;28;20075;-79
2022/11/09 18:15:55;;;;;;;;;;;12.60;99.90;;;;;;8398980;28;20299;-78
2022/11/09 18:19:56;;;;;;;;;;;12.60;99.90;;;;;;8395831;28;20391;-78
2022/11/09 18:23:58;;;;;;;;;;;12.60;99.90;;;;;;8395672;28;19924;-77
2022/11/09 18:28:00;;;;;;;;;;;12.50;99.90;;;;;;8402755;28;20007;-79
2022/11/09 18:32:02;;;;;;;;;;;12.50;99.90;;;;;;8402280;28;19936;-78
2022/11/09 18:41:09;;;;;;;;;;;12.50;99.90;;;;;;8395868;28;19974;-78
2022/11/09 18:45:11;;;;;;;;;;;12.50;99.90;;;;;;8392848;28;19938;-78
2022/11/09 18:49:13;;;;;;;;;;;12.50;99.90;;;;;;8398552;28;19983;-78
2022/11/09 18:53:15;;;;;;;;;;;12.50;99.90;;;;;;8392071;28;20283;-78
2022/11/09 18:57:16;;;;;;;;;;;12.40;99.90;;;;;;8395252;28;19939;-78
2022/11/09 19:01:24;;;;;;;;;;;12.40;99.90;;;;;;8397165;28;19935;-79
2022/11/09 19:05:26;;;;;;;;;;;12.40;99.90;;;;;;8398657;28;20019;-79
2022/11/09 19:09:28;;;;;;;;;;;12.30;99.90;;;;;;8398247;28;20674;-79
2022/11/09 19:13:29;;;;;;;;;;;12.30;99.90;;;;;;8398862;28;19935;-79
2022/11/09 19:17:31;;;;;;;;;;;12.30;99.90;;;;;;8392761;28;19928;-79
2022/11/09 19:21:33;;;;;;;;;;;12.30;99.90;;;;;;8412064;27;20023;-80
2022/11/09 19:25:34;;;;;;;;;;;12.30;99.90;;;;;;8397936;28;19928;-79
2022/11/09 19:29:36;;;;;;;;;;;12.30;99.90;;;;;;8399154;28;20011;-78
2022/11/09 19:33:38;;;;;;;;;;;12.30;99.90;;;;;;8389016;28;19928;-78
2022/11/09 19:37:39;;;;;;;;;;;12.30;99.90;;;;;;8382284;28;19928;-79
2022/11/09 19:41:42;;;;;;;;;;;12.20;99.90;;;;;;8393751;28;19928;-78
2022/11/09 19:45:43;;;;;;;;;;;12.20;99.90;;;;;;8380185;28;20490;-78
2022/11/09 19:49:45;;;;;;;;;;;12.10;99.90;;;;;;8401620;28;19924;-78
2022/11/09 19:53:48;;;;;;;;;;;12.10;99.90;;;;;;8390865;28;19928;-78
2022/11/09 19:57:49;;;;;;;;;;;12.00;99.90;;;;;;8396050;28;19928;-78
2022/11/09 20:01:51;;;;;;;;;;;11.90;99.90;;;;;;8395988;28;19931;-79
2022/11/09 20:05:53;;;;;;;;;;;11.80;99.90;;;;;;8377345;28;19924;-79
2022/11/09 20:09:55;;;;;;;;;;;11.70;99.90;;;;;;8395799;28;19933;-79
2022/11/09 20:13:56;;;;;;;;;;;11.70;99.90;;;;;;8390117;28;19928;-78
2022/11/09 20:18:06;;;;;;;;;;;11.70;99.90;;;;;;8393039;28;20376;-78
2022/11/09 20:22:08;;;;;;;;;;;11.70;99.90;;;;;;8392179;28;19931;-78
2022/11/09 20:26:10;;;;;;;;;;;11.70;99.90;;;;;;8389850;28;19924;-78
2022/11/09 20:30:12;;;;;;;;;;;11.60;99.90;;;;;;8388934;28;19924;-80
2022/11/09 20:34:13;;;;;;;;;;;11.60;99.90;;;;;;8387767;28;19979;-79
2022/11/09 20:38:15;;;;;;;;;;;11.60;99.90;;;;;;8379471;28;19924;-79
2022/11/09 20:42:17;;;;;;;;;;;11.50;99.90;;;;;;8386408;28;20031;-79
2022/11/09 20:46:20;;;;;;;;;;;11.50;99.90;;;;;;8390866;28;20310;-78
2022/11/09 20:50:21;;;;;;;;;;;11.50;99.90;;;;;;8388949;28;20387;-80
2022/11/09 20:54:23;;;;;;;;;;;11.50;99.90;;;;;;8388582;28;19934;-80
2022/11/09 20:58:26;;;;;;;;;;;11.50;99.90;;;;;;8386007;28;20018;-80
2022/11/09 21:02:27;;;;;;;;;;;11.60;99.90;;;;;;8390103;28;20031;-80
2022/11/09 21:06:30;;;;;;;;;;;11.60;99.90;;;;;;8387687;28;20027;-80
2022/11/09 21:10:31;;;;;;;;;;;11.50;99.90;;;;;;8379723;28;19964;-79
2022/11/09 21:14:33;;;;;;;;;;;11.50;99.90;;;;;;8383911;28;20330;-80
2022/11/09 21:18:34;;;;;;;;;;;11.50;99.90;;;;;;8421852;28;20396;-79
2022/11/09 21:31:17;;;;;;;;;;;11.50;99.90;;;;;;8391446;28;19932;-80
2022/11/09 21:35:18;;;;;;;;;;;11.50;99.90;;;;;;8383161;28;20403;-79
2022/11/09 21:39:20;;;;;;;;;;;11.50;99.90;;;;;;8398068;28;19928;-80
2022/11/09 21:43:21;;;;;;;;;;;11.40;99.90;;;;;;8404703;28;20291;-80
2022/11/09 21:47:23;;;;;;;;;;;11.30;99.90;;;;;;8398441;28;19928;-80
2022/11/09 21:51:25;;;;;;;;;;;11.20;99.90;;;;;;8388504;28;19931;-80
2022/11/09 21:55:27;;;;;;;;;;;11.10;99.90;;;;;;8383928;28;19932;-79
2022/11/09 21:59:28;;;;;;;;;;;11.10;99.90;;;;;;8379746;28;19932;-80
2022/11/09 22:03:31;;;;;;;;;;;11.00;99.90;;;;;;8399340;28;19942;-79
2022/11/09 22:07:32;;;;;;;;;;;10.90;99.90;;;;;;8407686;28;19924;-80
2022/11/09 22:16:05;;;;;;;;;;;10.70;99.90;;;;;;8419227;28;20375;-80
2022/11/09 22:24:27;;;;;;;;;;;10.60;99.90;;;;;;8417441;28;20011;-80
2022/11/09 22:28:30;;;;;;;;;;;10.60;99.90;;;;;;8425593;28;20010;-80
2022/11/09 22:32:32;;;;;;;;;;;10.60;99.90;;;;;;8419096;28;20339;-80
2022/11/09 22:36:33;;;;;;;;;;;10.60;99.90;;;;;;8409993;28;19935;-80
2022/11/09 22:40:35;;;;;;;;;;;10.60;99.90;;;;;;8419781;28;19963;-80
2022/11/09 22:44:37;;;;;;;;;;;10.60;99.90;;;;;;8401743;28;20367;-80
2022/11/09 22:48:39;;;;;;;;;;;10.60;99.90;;;;;;8403065;28;19924;-79
2022/11/09 22:52:40;;;;;;;;;;;10.60;99.90;;;;;;8419311;28;19938;-80
2022/11/09 22:56:42;;;;;;;;;;;10.60;99.90;;;;;;8398168;28;19934;-80
2022/11/09 23:00:44;;;;;;;;;;;10.60;99.90;;;;;;8402294;28;19924;-80
2022/11/09 23:04:45;;;;;;;;;;;10.70;99.90;;;;;;8424181;28;19968;-80
2022/11/09 23:08:47;;;;;;;;;;;10.60;99.90;;;;;;8389987;28;19963;-80
2022/11/09 23:12:49;;;;;;;;;;;10.70;99.90;;;;;;8425946;28;19970;-80
2022/11/09 23:16:51;;;;;;;;;;;10.70;99.90;;;;;;8417895;28;20015;-80
2022/11/09 23:20:52;;;;;;;;;;;10.70;99.90;;;;;;8410706;28;19928;-79
2022/11/09 23:29:15;;;;;;;;;;;10.60;99.90;;;;;;8408675;28;19940;-80
2022/11/09 23:33:16;;;;;;;;;;;10.60;99.90;;;;;;8418067;28;19928;-79
2022/11/09 23:37:18;;;;;;;;;;;10.60;99.90;;;;;;8417935;28;19939;-79
2022/11/09 23:51:28;;;;;;;;;;;10.40;99.90;;;;;;8413438;28;19930;-79
2022/11/09 23:55:29;;;;;;;;;;;10.40;99.90;;;;;;8394656;28;19932;-79
2022/11/09 23:59:31;;;;;;;;;;;10.40;99.90;;;;;;8417518;28;19931;-80
